sensor_id;sensor_type;location;lat;lon;timestamp;pressure;altitude;pressure_sealevel;temperature;humidity
58473;BME280;44775;51.564;5.460;2023-07-13T00:02:04;101148.84;;;14.08;100.00
58473;BME280;44775;51.564;5.460;2023-07-13T00:04:30;101149.94;;;13.99;100.00
58473;BME280;44775;51.564;5.460;2023-07-13T00:06:55;101151.13;;;13.97;100.00
58473;BME280;44775;51.564;5.460;2023-07-13T00:09:21;101157.88;;;13.92;100.00
58473;BME280;44775;51.564;5.460;2023-07-13T00:11:54;101160.22;;;13.96;100.00
58473;BME280;44775;51.564;5.460;2023-07-13T00:14:20;101153.34;;;13.93;100.00
58473;BME280;44775;51.564;5.460;2023-07-13T00:16:46;101152.03;;;13.89;100.00
58473;BME280;44775;51.564;5.460;2023-07-13T00:19:12;101142.31;;;13.88;100.00
58473;BME280;44775;51.564;5.460;2023-07-13T00:21:39;101149.00;;;13.92;100.00
58473;BME280;44775;51.564;5.460;2023-07-13T00:24:06;101155.56;;;13.89;100.00
58473;BME280;44775;51.564;5.460;2023-07-13T00:26:32;101153.25;;;13.86;100.00
58473;BME280;44775;51.564;5.460;2023-07-13T00:28:58;101153.25;;;13.86;100.00
58473;BME280;44775;51.564;5.460;2023-07-13T00:31:23;101148.91;;;13.85;100.00
58473;BME280;44775;51.564;5.460;2023-07-13T00:33:49;101140.84;;;13.85;100.00
58473;BME280;44775;51.564;5.460;2023-07-13T00:36:14;101144.09;;;13.81;100.00
58473;BME280;44775;51.564;5.460;2023-07-13T00:38:40;101160.72;;;13.76;100.00
58473;BME280;44775;51.564;5.460;2023-07-13T00:41:06;101165.81;;;13.71;100.00
58473;BME280;44775;51.564;5.460;2023-07-13T00:43:31;101157.28;;;13.67;100.00
58473;BME280;44775;51.564;5.460;2023-07-13T00:46:14;101155.97;;;13.63;100.00
58473;BME280;44775;51.564;5.460;2023-07-13T00:48:40;101153.66;;;13.60;100.00
58473;BME280;44775;51.564;5.460;2023-07-13T00:51:06;101154.38;;;13.54;100.00
58473;BME280;44775;51.564;5.460;2023-07-13T00:53:32;101156.88;;;13.56;100.00
58473;BME280;44775;51.564;5.460;2023-07-13T00:55:59;101157.59;;;13.50;100.00
58473;BME280;44775;51.564;5.460;2023-07-13T00:58:25;101163.03;;;13.64;100.00
58473;BME280;44775;51.564;5.460;2023-07-13T01:00:52;101158.84;;;13.62;100.00
58473;BME280;44775;51.564;5.460;2023-07-13T01:03:18;101165.03;;;13.62;100.00
58473;BME280;44775;51.564;5.460;2023-07-13T01:05:47;101160.22;;;13.58;100.00
58473;BME280;44775;51.564;5.460;2023-07-13T01:08:13;101150.88;;;13.54;100.00
58473;BME280;44775;51.564;5.460;2023-07-13T01:10:39;101155.22;;;13.55;100.00
58473;BME280;44775;51.564;5.460;2023-07-13T01:13:09;101151.03;;;13.52;100.00
58473;BME280;44775;51.564;5.460;2023-07-13T01:15:46;101152.59;;;13.46;100.00
58473;BME280;44775;51.564;5.460;2023-07-13T01:18:23;101158.03;;;13.38;100.00
58473;BME280;44775;51.564;5.460;2023-07-13T01:21:00;101157.00;;;13.39;100.00
58473;BME280;44775;51.564;5.460;2023-07-13T01:23:27;101169.31;;;13.34;100.00
58473;BME280;44775;51.564;5.460;2023-07-13T01:25:53;101166.97;;;13.31;100.00
58473;BME280;44775;51.564;5.460;2023-07-13T01:28:20;101171.50;;;13.30;100.00
58473;BME280;44775;51.564;5.460;2023-07-13T01:30:46;101167.34;;;13.28;100.00
58473;BME280;44775;51.564;5.460;2023-07-13T01:33:17;101162.47;;;13.23;100.00
58473;BME280;44775;51.564;5.460;2023-07-13T01:35:46;101161.13;;;13.19;100.00
58473;BME280;44775;51.564;5.460;2023-07-13T01:38:13;101171.19;;;13.25;100.00
58473;BME280;44775;51.564;5.460;2023-07-13T01:40:39;101165.19;;;13.15;100.00
58473;BME280;44775;51.564;5.460;2023-07-13T01:43:05;101167.41;;;13.11;100.00
58473;BME280;44775;51.564;5.460;2023-07-13T01:45:31;101165.19;;;13.15;100.00
58473;BME280;44775;51.564;5.460;2023-07-13T01:47:56;101165.69;;;13.18;100.00
58473;BME280;44775;51.564;5.460;2023-07-13T01:50:23;101175.72;;;13.25;100.00
58473;BME280;44775;51.564;5.460;2023-07-13T01:52:49;101177.41;;;13.26;100.00
58473;BME280;44775;51.564;5.460;2023-07-13T01:55:14;101174.19;;;13.22;100.00
58473;BME280;44775;51.564;5.460;2023-07-13T01:57:40;101165.16;;;13.23;100.00
58473;BME280;44775;51.564;5.460;2023-07-13T02:00:06;101179.94;;;13.19;100.00
58473;BME280;44775;51.564;5.460;2023-07-13T02:02:32;101172.22;;;13.16;100.00
58473;BME280;44775;51.564;5.460;2023-07-13T02:04:57;101171.28;;;13.09;100.00
58473;BME280;44775;51.564;5.460;2023-07-13T02:07:23;101177.47;;;13.09;100.00
58473;BME280;44775;51.564;5.460;2023-07-13T02:09:48;101171.97;;;13.03;100.00
58473;BME280;44775;51.564;5.460;2023-07-13T02:12:14;101180.22;;;13.01;100.00
58473;BME280;44775;51.564;5.460;2023-07-13T02:14:39;101176.38;;;12.95;100.00
58473;BME280;44775;51.564;5.460;2023-07-13T02:17:05;101180.25;;;12.93;100.00
58473;BME280;44775;51.564;5.460;2023-07-13T02:19:31;101174.03;;;12.92;100.00
58473;BME280;44775;51.564;5.460;2023-07-13T02:21:56;101178.41;;;12.93;100.00
58473;BME280;44775;51.564;5.460;2023-07-13T02:24:21;101174.72;;;12.94;100.00
58473;BME280;44775;51.564;5.460;2023-07-13T02:26:47;101169.19;;;12.96;100.00
58473;BME280;44775;51.564;5.460;2023-07-13T02:29:13;101172.03;;;12.94;100.00
58473;BME280;44775;51.564;5.460;2023-07-13T02:31:38;101172.34;;;12.99;100.00
58473;BME280;44775;51.564;5.460;2023-07-13T02:34:04;101167.00;;;12.99;100.00
58473;BME280;44775;51.564;5.460;2023-07-13T02:36:30;101177.34;;;13.03;100.00
58473;BME280;44775;51.564;5.460;2023-07-13T02:39:00;101164.13;;;13.01;100.00
58473;BME280;44775;51.564;5.460;2023-07-13T02:41:26;101174.00;;;13.00;100.00
58473;BME280;44775;51.564;5.460;2023-07-13T02:43:52;101172.34;;;12.99;100.00
58473;BME280;44775;51.564;5.460;2023-07-13T02:46:17;101169.00;;;12.97;100.00
58473;BME280;44775;51.564;5.460;2023-07-13T02:48:44;101171.00;;;12.95;100.00
58473;BME280;44775;51.564;5.460;2023-07-13T02:51:10;101173.88;;;12.94;100.00
58473;BME280;44775;51.564;5.460;2023-07-13T02:53:35;101183.09;;;12.91;100.00
58473;BME280;44775;51.564;5.460;2023-07-13T02:56:01;101180.28;;;12.85;100.00
58473;BME280;44775;51.564;5.460;2023-07-13T02:58:27;101176.09;;;12.82;100.00
58473;BME280;44775;51.564;5.460;2023-07-13T03:00:52;101171.28;;;12.77;100.00
58473;BME280;44775;51.564;5.460;2023-07-13T03:03:18;101176.50;;;12.71;100.00
58473;BME280;44775;51.564;5.460;2023-07-13T03:05:44;101183.72;;;12.70;100.00
58473;BME280;44775;51.564;5.460;2023-07-13T03:08:11;101187.91;;;12.65;100.00
58473;BME280;44775;51.564;5.460;2023-07-13T03:10:37;101180.06;;;12.63;100.00
58473;BME280;44775;51.564;5.460;2023-07-13T03:13:03;101183.53;;;12.72;100.00
58473;BME280;44775;51.564;5.460;2023-07-13T03:15:29;101176.22;;;12.66;100.00
58473;BME280;44775;51.564;5.460;2023-07-13T03:17:54;101184.56;;;12.71;100.00
58473;BME280;44775;51.564;5.460;2023-07-13T03:20:19;101178.22;;;12.64;100.00
58473;BME280;44775;51.564;5.460;2023-07-13T03:22:45;101179.88;;;12.65;100.00
58473;BME280;44775;51.564;5.460;2023-07-13T03:25:11;101187.28;;;12.63;100.00
58473;BME280;44775;51.564;5.460;2023-07-13T03:27:37;101182.59;;;12.57;100.00
58473;BME280;44775;51.564;5.460;2023-07-13T03:30:04;101180.72;;;12.65;100.00
58473;BME280;44775;51.564;5.460;2023-07-13T03:32:29;101188.59;;;12.59;100.00
58473;BME280;44775;51.564;5.460;2023-07-13T03:34:55;101187.13;;;12.56;100.00
58473;BME280;44775;51.564;5.460;2023-07-13T03:37:20;101195.00;;;12.58;100.00
58473;BME280;44775;51.564;5.460;2023-07-13T03:39:46;101205.72;;;12.58;100.00
58473;BME280;44775;51.564;5.460;2023-07-13T03:42:11;101202.53;;;12.54;100.00
58473;BME280;44775;51.564;5.460;2023-07-13T03:44:39;101198.00;;;12.55;100.00
58473;BME280;44775;51.564;5.460;2023-07-13T03:47:05;101204.38;;;12.53;100.00
58473;BME280;44775;51.564;5.460;2023-07-13T03:49:31;101205.22;;;12.54;100.00
58473;BME280;44775;51.564;5.460;2023-07-13T03:51:57;101203.75;;;12.43;100.00
58473;BME280;44775;51.564;5.460;2023-07-13T03:54:23;101210.09;;;12.50;100.00
58473;BME280;44775;51.564;5.460;2023-07-13T03:56:48;101211.47;;;12.46;100.00
58473;BME280;44775;51.564;5.460;2023-07-13T03:59:13;101211.47;;;12.46;100.00
58473;BME280;44775;51.564;5.460;2023-07-13T04:01:39;101209.25;;;12.50;100.00
58473;BME280;44775;51.564;5.460;2023-07-13T04:04:04;101217.13;;;12.51;100.00
58473;BME280;44775;51.564;5.460;2023-07-13T04:06:30;101213.78;;;12.49;100.00
58473;BME280;44775;51.564;5.460;2023-07-13T04:08:58;101218.47;;;12.47;100.00
58473;BME280;44775;51.564;5.460;2023-07-13T04:11:26;101227.84;;;12.51;100.00
58473;BME280;44775;51.564;5.460;2023-07-13T04:13:52;101218.63;;;12.54;100.00
58473;BME280;44775;51.564;5.460;2023-07-13T04:16:18;101229.34;;;12.62;100.00
58473;BME280;44775;51.564;5.460;2023-07-13T04:18:45;101237.69;;;12.67;100.00
58473;BME280;44775;51.564;5.460;2023-07-13T04:21:11;101238.66;;;12.74;100.00
58473;BME280;44775;51.564;5.460;2023-07-13T04:23:37;101240.47;;;12.82;100.00
58473;BME280;44775;51.564;5.460;2023-07-13T04:26:03;101241.47;;;12.89;100.00
58473;BME280;44775;51.564;5.460;2023-07-13T04:28:29;101233.06;;;12.92;100.00
58473;BME280;44775;51.564;5.460;2023-07-13T04:30:55;101231.84;;;13.03;100.00
58473;BME280;44775;51.564;5.460;2023-07-13T04:33:21;101222.91;;;13.11;100.00
58473;BME280;44775;51.564;5.460;2023-07-13T04:35:51;101231.38;;;13.22;100.00
58473;BME280;44775;51.564;5.460;2023-07-13T04:38:25;101228.88;;;13.29;100.00
58473;BME280;44775;51.564;5.460;2023-07-13T04:40:53;101241.38;;;13.45;100.00
58473;BME280;44775;51.564;5.460;2023-07-13T04:43:19;101240.19;;;13.48;100.00
58473;BME280;44775;51.564;5.460;2023-07-13T04:45:45;101248.28;;;13.62;100.00
58473;BME280;44775;51.564;5.460;2023-07-13T04:48:10;101245.44;;;13.64;100.00
58473;BME280;44775;51.564;5.460;2023-07-13T04:50:37;101249.72;;;13.73;100.00
58473;BME280;44775;51.564;5.460;2023-07-13T04:53:02;101254.38;;;13.79;100.00
58473;BME280;44775;51.564;5.460;2023-07-13T04:55:29;101252.03;;;13.99;100.00
58473;BME280;44775;51.564;5.460;2023-07-13T04:57:56;101253.69;;;14.00;100.00
58473;BME280;44775;51.564;5.460;2023-07-13T05:00:21;101256.84;;;14.04;100.00
58473;BME280;44775;51.564;5.460;2023-07-13T05:02:47;101255.13;;;14.11;100.00
58473;BME280;44775;51.564;5.460;2023-07-13T05:05:12;101254.50;;;14.24;100.00
58473;BME280;44775;51.564;5.460;2023-07-13T05:07:38;101254.50;;;14.24;100.00
58473;BME280;44775;51.564;5.460;2023-07-13T05:10:04;101264.16;;;14.33;100.00
58473;BME280;44775;51.564;5.460;2023-07-13T05:12:30;101268.44;;;14.42;100.00
58473;BME280;44775;51.564;5.460;2023-07-13T05:14:55;101264.16;;;14.48;100.00
58473;BME280;44775;51.564;5.460;2023-07-13T05:17:21;101267.09;;;14.61;100.00
58473;BME280;44775;51.564;5.460;2023-07-13T05:19:47;101274.41;;;14.67;100.00
58473;BME280;44775;51.564;5.460;2023-07-13T05:22:12;101266.53;;;14.66;100.00
58473;BME280;44775;51.564;5.460;2023-07-13T05:24:37;101279.72;;;14.75;100.00
58473;BME280;44775;51.564;5.460;2023-07-13T05:27:03;101271.84;;;14.88;100.00
58473;BME280;44775;51.564;5.460;2023-07-13T05:29:29;101288.91;;;14.96;100.00
58473;BME280;44775;51.564;5.460;2023-07-13T05:31:54;101292.50;;;15.03;100.00
58473;BME280;44775;51.564;5.460;2023-07-13T05:34:20;101293.34;;;15.03;100.00
58473;BME280;44775;51.564;5.460;2023-07-13T05:36:45;101293.44;;;15.10;100.00
58473;BME280;44775;51.564;5.460;2023-07-13T05:39:11;101287.69;;;15.13;100.00
58473;BME280;44775;51.564;5.460;2023-07-13T05:41:37;101287.19;;;15.24;100.00
58473;BME280;44775;51.564;5.460;2023-07-13T05:44:02;101294.72;;;15.29;100.00
58473;BME280;44775;51.564;5.460;2023-07-13T05:46:28;101298.31;;;15.36;100.00
58473;BME280;44775;51.564;5.460;2023-07-13T05:48:53;101294.38;;;15.39;100.00
58473;BME280;44775;51.564;5.460;2023-07-13T05:51:19;101290.25;;;15.36;100.00
58473;BME280;44775;51.564;5.460;2023-07-13T05:53:44;101290.03;;;15.38;100.00
58473;BME280;44775;51.564;5.460;2023-07-13T05:56:09;101297.88;;;15.54;100.00
58473;BME280;44775;51.564;5.460;2023-07-13T05:58:35;101296.31;;;15.59;100.00
58473;BME280;44775;51.564;5.460;2023-07-13T06:01:08;101302.69;;;15.73;100.00
58473;BME280;44775;51.564;5.460;2023-07-13T06:03:35;101317.00;;;15.74;100.00
58473;BME280;44775;51.564;5.460;2023-07-13T06:06:00;101315.50;;;15.71;100.00
58473;BME280;44775;51.564;5.460;2023-07-13T06:08:27;101320.16;;;15.77;100.00
58473;BME280;44775;51.564;5.460;2023-07-13T06:10:53;101320.38;;;15.82;100.00
58473;BME280;44775;51.564;5.460;2023-07-13T06:13:18;101319.53;;;15.97;100.00
58473;BME280;44775;51.564;5.460;2023-07-13T06:15:50;101317.56;;;16.12;100.00
58473;BME280;44775;51.564;5.460;2023-07-13T06:18:16;101320.78;;;16.22;100.00
58473;BME280;44775;51.564;5.460;2023-07-13T06:20:41;101316.53;;;16.35;100.00
58473;BME280;44775;51.564;5.460;2023-07-13T06:23:06;101322.88;;;16.48;100.00
58473;BME280;44775;51.564;5.460;2023-07-13T06:25:32;101334.97;;;16.59;100.00
58473;BME280;44775;51.564;5.460;2023-07-13T06:27:57;101333.38;;;16.65;100.00
58473;BME280;44775;51.564;5.460;2023-07-13T06:30:23;101334.94;;;16.81;100.00
58473;BME280;44775;51.564;5.460;2023-07-13T06:32:49;101336.72;;;16.73;100.00
58473;BME280;44775;51.564;5.460;2023-07-13T06:35:14;101335.81;;;16.60;100.00
58473;BME280;44775;51.564;5.460;2023-07-13T06:37:40;101346.66;;;16.66;100.00
58473;BME280;44775;51.564;5.460;2023-07-13T06:40:06;101348.34;;;16.67;100.00
58473;BME280;44775;51.564;5.460;2023-07-13T06:42:31;101338.41;;;16.46;100.00
58473;BME280;44775;51.564;5.460;2023-07-13T06:44:57;101351.94;;;16.53;100.00
58473;BME280;44775;51.564;5.460;2023-07-13T06:47:22;101356.94;;;16.56;100.00
58473;BME280;44775;51.564;5.460;2023-07-13T06:49:47;101348.22;;;16.54;100.00
58473;BME280;44775;51.564;5.460;2023-07-13T06:52:13;101349.16;;;16.68;100.00
58473;BME280;44775;51.564;5.460;2023-07-13T06:54:39;101346.06;;;16.71;100.00
58473;BME280;44775;51.564;5.460;2023-07-13T06:57:04;101355.53;;;16.82;100.00
58473;BME280;44775;51.564;5.460;2023-07-13T06:59:30;101361.94;;;16.81;100.00
58473;BME280;44775;51.564;5.460;2023-07-13T07:01:55;101353.03;;;16.87;100.00
58473;BME280;44775;51.564;5.460;2023-07-13T07:04:20;101359.66;;;16.78;100.00
58473;BME280;44775;51.564;5.460;2023-07-13T07:06:46;101362.84;;;16.88;100.00
58473;BME280;44775;51.564;5.460;2023-07-13T07:09:11;101363.13;;;17.06;100.00
58473;BME280;44775;51.564;5.460;2023-07-13T07:11:37;101364.84;;;17.14;100.00
58473;BME280;44775;51.564;5.460;2023-07-13T07:14:02;101369.06;;;17.23;100.00
58473;BME280;44775;51.564;5.460;2023-07-13T07:16:27;101368.63;;;17.19;100.00
58473;BME280;44775;51.564;5.460;2023-07-13T07:18:53;101375.03;;;17.12;100.00
58473;BME280;44775;51.564;5.460;2023-07-13T07:21:18;101367.16;;;17.17;100.00
58473;BME280;44775;51.564;5.460;2023-07-13T07:23:44;101362.75;;;17.09;100.00
58473;BME280;44775;51.564;5.460;2023-07-13T07:26:09;101366.09;;;17.11;100.00
58473;BME280;44775;51.564;5.460;2023-07-13T07:28:35;101375.31;;;17.30;100.00
58473;BME280;44775;51.564;5.460;2023-07-13T07:31:01;101380.63;;;17.52;100.00
58473;BME280;44775;51.564;5.460;2023-07-13T07:33:26;101378.53;;;17.54;100.00
58473;BME280;44775;51.564;5.460;2023-07-13T07:35:52;101380.56;;;17.86;100.00
58473;BME280;44775;51.564;5.460;2023-07-13T07:38:17;101384.16;;;18.07;100.00
58473;BME280;44775;51.564;5.460;2023-07-13T07:40:43;101385.22;;;18.39;100.00
58473;BME280;44775;51.564;5.460;2023-07-13T07:43:11;101377.75;;;18.61;98.68
58473;BME280;44775;51.564;5.460;2023-07-13T07:45:37;101374.44;;;18.72;95.39
58473;BME280;44775;51.564;5.460;2023-07-13T07:48:03;101389.22;;;18.76;94.99
58473;BME280;44775;51.564;5.460;2023-07-13T07:50:29;101383.56;;;18.71;96.03
58473;BME280;44775;51.564;5.460;2023-07-13T07:52:55;101374.41;;;18.85;96.10
58473;BME280;44775;51.564;5.460;2023-07-13T07:55:24;101384.13;;;19.26;93.60
58473;BME280;44775;51.564;5.460;2023-07-13T07:57:53;101386.53;;;19.68;90.45
58473;BME280;44775;51.564;5.460;2023-07-13T08:00:19;101387.81;;;19.97;87.59
58473;BME280;44775;51.564;5.460;2023-07-13T08:02:45;101393.75;;;20.44;86.03
58473;BME280;44775;51.564;5.460;2023-07-13T08:05:11;101389.69;;;20.28;83.08
58473;BME280;44775;51.564;5.460;2023-07-13T08:07:38;101391.16;;;19.99;82.26
58473;BME280;44775;51.564;5.460;2023-07-13T08:10:05;101370.19;;;20.13;81.76
58473;BME280;44775;51.564;5.460;2023-07-13T08:12:34;101393.75;;;20.75;80.30
58473;BME280;44775;51.564;5.460;2023-07-13T08:15:00;101394.94;;;20.55;78.33
58473;BME280;44775;51.564;5.460;2023-07-13T08:17:26;101408.44;;;20.36;79.54
58473;BME280;44775;51.564;5.460;2023-07-13T08:19:52;101400.38;;;20.23;80.55
58473;BME280;44775;51.564;5.460;2023-07-13T08:22:17;101409.44;;;20.73;78.05
58473;BME280;44775;51.564;5.460;2023-07-13T08:24:43;101402.09;;;20.49;77.76
58473;BME280;44775;51.564;5.460;2023-07-13T08:27:10;101398.50;;;20.80;78.16
58473;BME280;44775;51.564;5.460;2023-07-13T08:29:36;101386.50;;;20.88;76.23
58473;BME280;44775;51.564;5.460;2023-07-13T08:32:02;101404.88;;;21.11;73.94
58473;BME280;44775;51.564;5.460;2023-07-13T08:34:27;101407.09;;;21.76;70.40
58473;BME280;44775;51.564;5.460;2023-07-13T08:36:53;101407.81;;;22.01;68.74
58473;BME280;44775;51.564;5.460;2023-07-13T08:39:18;101399.47;;;21.96;66.81
58473;BME280;44775;51.564;5.460;2023-07-13T08:41:50;101407.00;;;21.82;69.11
58473;BME280;44775;51.564;5.460;2023-07-13T08:44:25;101407.25;;;22.11;66.60
58473;BME280;44775;51.564;5.460;2023-07-13T08:46:56;101402.47;;;22.06;65.34
58473;BME280;44775;51.564;5.460;2023-07-13T08:49:24;101402.56;;;22.18;64.57
58473;BME280;44775;51.564;5.460;2023-07-13T08:51:57;101406.78;;;22.56;62.16
58473;BME280;44775;51.564;5.460;2023-07-13T08:54:30;101405.13;;;22.55;63.61
58473;BME280;44775;51.564;5.460;2023-07-13T08:56:58;101408.28;;;22.10;64.80
58473;BME280;44775;51.564;5.460;2023-07-13T08:59:27;101407.81;;;22.01;66.09
58473;BME280;44775;51.564;5.460;2023-07-13T09:04:21;101401.06;;;21.74;67.38
58473;BME280;44775;51.564;5.460;2023-07-13T09:12:01;101398.59;;;21.54;66.42
58473;BME280;44775;51.564;5.460;2023-07-13T09:14:47;101406.66;;;21.60;66.38
58473;BME280;44775;51.564;5.460;2023-07-13T09:17:29;101400.91;;;21.32;67.34
58473;BME280;44775;51.564;5.460;2023-07-13T09:20:23;101407.94;;;21.58;65.42
58473;BME280;44775;51.564;5.460;2023-07-13T09:22:47;101406.06;;;21.58;63.28
58473;BME280;44775;51.564;5.460;2023-07-13T09:27:47;101404.03;;;22.44;60.18
58473;BME280;44775;51.564;5.460;2023-07-13T09:32:40;101400.16;;;22.52;59.27
58473;BME280;44775;51.564;5.460;2023-07-13T09:35:12;101397.91;;;22.84;57.64
58473;BME280;44775;51.564;5.460;2023-07-13T09:37:43;101399.94;;;22.89;57.42
58473;BME280;44775;51.564;5.460;2023-07-13T09:40:21;101401.38;;;23.15;57.07
58473;BME280;44775;51.564;5.460;2023-07-13T09:42:52;101394.09;;;23.44;55.65
58473;BME280;44775;51.564;5.460;2023-07-13T09:45:27;101392.88;;;23.92;54.49
58473;BME280;44775;51.564;5.460;2023-07-13T09:48:19;101401.00;;;23.87;54.14
58473;BME280;44775;51.564;5.460;2023-07-13T09:50:45;101398.66;;;23.67;53.44
58473;BME280;44775;51.564;5.460;2023-07-13T09:53:17;101407.38;;;23.40;54.07
58473;BME280;44775;51.564;5.460;2023-07-13T09:55:45;101408.88;;;24.00;53.73
58473;BME280;44775;51.564;5.460;2023-07-13T09:58:12;101415.41;;;23.99;52.25
58473;BME280;44775;51.564;5.460;2023-07-13T10:00:39;101405.75;;;24.08;53.75
58473;BME280;44775;51.564;5.460;2023-07-13T10:03:20;101404.19;;;24.12;52.45
58473;BME280;44775;51.564;5.460;2023-07-13T10:05:48;101397.03;;;23.54;53.58
58473;BME280;44775;51.564;5.460;2023-07-13T10:08:23;101410.56;;;23.89;52.73
58473;BME280;44775;51.564;5.460;2023-07-13T10:11:01;101402.28;;;23.44;53.31
58473;BME280;44775;51.564;5.460;2023-07-13T10:13:34;101405.16;;;23.25;53.62
58473;BME280;44775;51.564;5.460;2023-07-13T10:16:02;101407.16;;;23.30;53.92
58473;BME280;44775;51.564;5.460;2023-07-13T10:18:55;101410.59;;;23.37;53.95
58473;BME280;44775;51.564;5.460;2023-07-13T10:21:27;101404.47;;;23.06;54.58
58473;BME280;44775;51.564;5.460;2023-07-13T10:23:56;101413.56;;;23.88;52.72
58473;BME280;44775;51.564;5.460;2023-07-13T10:26:29;101407.56;;;24.48;51.23
58473;BME280;44775;51.564;5.460;2023-07-13T10:29:01;101413.69;;;24.72;48.50
58473;BME280;44775;51.564;5.460;2023-07-13T10:31:27;101412.88;;;24.88;47.62
58473;BME280;44775;51.564;5.460;2023-07-13T10:33:53;101403.53;;;24.50;48.36
58473;BME280;44775;51.564;5.460;2023-07-13T10:38:54;101406.97;;;23.60;49.93
58473;BME280;44775;51.564;5.460;2023-07-13T10:41:23;101409.44;;;23.09;52.46
58473;BME280;44775;51.564;5.460;2023-07-13T10:43:52;101421.69;;;22.42;66.82
58473;BME280;44775;51.564;5.460;2023-07-13T10:46:20;101423.50;;;21.69;72.94
58473;BME280;44775;51.564;5.460;2023-07-13T10:48:54;101421.97;;;21.18;79.24
58473;BME280;44775;51.564;5.460;2023-07-13T10:51:21;101422.94;;;20.55;82.52
58473;BME280;44775;51.564;5.460;2023-07-13T10:53:47;101433.53;;;19.93;89.58
58473;BME280;44775;51.564;5.460;2023-07-13T10:58:42;101421.13;;;19.59;100.00
58473;BME280;44775;51.564;5.460;2023-07-13T11:01:10;101433.38;;;19.81;98.08
58473;BME280;44775;51.564;5.460;2023-07-13T11:03:50;101425.19;;;20.26;98.25
58473;BME280;44775;51.564;5.460;2023-07-13T11:06:34;101431.94;;;20.99;92.18
58473;BME280;44775;51.564;5.460;2023-07-13T11:09:40;101441.13;;;21.48;87.75
58473;BME280;44775;51.564;5.460;2023-07-13T11:17:33;101450.72;;;22.71;70.29
58473;BME280;44775;51.564;5.460;2023-07-13T11:23:07;101442.44;;;23.60;66.64
58473;BME280;44775;51.564;5.460;2023-07-13T11:25:31;101440.25;;;23.33;66.87
58473;BME280;44775;51.564;5.460;2023-07-13T11:28:16;101433.97;;;23.21;67.84
58473;BME280;44775;51.564;5.460;2023-07-13T11:30:59;101445.56;;;23.40;67.66
58473;BME280;44775;51.564;5.460;2023-07-13T11:38:39;101441.84;;;24.56;59.01
58473;BME280;44775;51.564;5.460;2023-07-13T11:41:17;101441.34;;;24.13;59.21
58473;BME280;44775;51.564;5.460;2023-07-13T11:43:44;101439.63;;;23.95;60.74
58473;BME280;44775;51.564;5.460;2023-07-13T11:46:22;101437.56;;;23.62;65.40
58473;BME280;44775;51.564;5.460;2023-07-13T11:48:48;101442.97;;;23.22;73.12
58473;BME280;44775;51.564;5.460;2023-07-13T11:51:22;101451.19;;;22.56;71.91
58473;BME280;44775;51.564;5.460;2023-07-13T11:53:50;101443.69;;;21.61;76.59
58473;BME280;44775;51.564;5.460;2023-07-13T11:56:16;101432.69;;;21.31;79.85
58473;BME280;44775;51.564;5.460;2023-07-13T11:58:42;101441.19;;;20.73;90.17
58473;BME280;44775;51.564;5.460;2023-07-13T12:01:41;101432.38;;;20.52;87.04
58473;BME280;44775;51.564;5.460;2023-07-13T12:04:19;101443.69;;;20.04;93.93
58473;BME280;44775;51.564;5.460;2023-07-13T12:06:46;101433.00;;;19.78;95.88
58473;BME280;44775;51.564;5.460;2023-07-13T12:09:14;101437.63;;;19.57;94.80
58473;BME280;44775;51.564;5.460;2023-07-13T12:11:43;101425.97;;;19.37;99.28
58473;BME280;44775;51.564;5.460;2023-07-13T12:14:16;101422.28;;;19.18;94.35
58473;BME280;44775;51.564;5.460;2023-07-13T12:16:42;101426.63;;;19.39;93.42
58473;BME280;44775;51.564;5.460;2023-07-13T12:21:42;101431.66;;;19.94;93.32
58473;BME280;44775;51.564;5.460;2023-07-13T12:24:17;101423.63;;;20.75;91.14
58473;BME280;44775;51.564;5.460;2023-07-13T12:26:44;101430.69;;;21.93;82.79
58473;BME280;44775;51.564;5.460;2023-07-13T12:29:16;101435.72;;;23.27;79.63
58473;BME280;44775;51.564;5.460;2023-07-13T12:31:44;101437.16;;;24.39;68.48
58473;BME280;44775;51.564;5.460;2023-07-13T12:34:14;101441.78;;;25.18;63.77
58473;BME280;44775;51.564;5.460;2023-07-13T12:36:46;101439.88;;;25.18;57.63
58473;BME280;44775;51.564;5.460;2023-07-13T12:39:19;101438.03;;;25.68;60.61
58473;BME280;44775;51.564;5.460;2023-07-13T12:41:47;101448.28;;;25.78;54.46
58473;BME280;44775;51.564;5.460;2023-07-13T12:44:15;101443.00;;;25.71;50.70
58473;BME280;44775;51.564;5.460;2023-07-13T12:46:52;101440.97;;;25.61;55.33
58473;BME280;44775;51.564;5.460;2023-07-13T12:49:23;101447.63;;;25.27;54.69
58473;BME280;44775;51.564;5.460;2023-07-13T12:51:56;101447.25;;;24.50;53.30
58473;BME280;44775;51.564;5.460;2023-07-13T12:54:22;101449.16;;;23.93;55.98
58473;BME280;44775;51.564;5.460;2023-07-13T12:56:53;101446.91;;;23.90;54.82
58473;BME280;44775;51.564;5.460;2023-07-13T12:59:21;101449.22;;;24.26;54.69
58473;BME280;44775;51.564;5.460;2023-07-13T13:01:48;101453.28;;;24.69;57.04
58473;BME280;44775;51.564;5.460;2023-07-13T13:04:15;101449.22;;;25.06;56.65
58473;BME280;44775;51.564;5.460;2023-07-13T13:06:41;101446.44;;;24.38;55.84
58473;BME280;44775;51.564;5.460;2023-07-13T13:09:13;101458.75;;;23.95;55.93
58473;BME280;44775;51.564;5.460;2023-07-13T13:11:39;101460.38;;;23.56;52.85
58473;BME280;44775;51.564;5.460;2023-07-13T13:14:05;101452.94;;;23.16;54.27
58473;BME280;44775;51.564;5.460;2023-07-13T13:16:39;101460.13;;;22.87;56.67
58473;BME280;44775;51.564;5.460;2023-07-13T13:19:21;101452.41;;;22.72;54.86
58473;BME280;44775;51.564;5.460;2023-07-13T13:21:48;101453.75;;;22.39;55.63